createdAt,value
2022-11-19T00:01:34.281Z,-1.70
2022-11-19T00:04:01.919Z,-1.72
2022-11-19T00:06:29.438Z,-1.74
2022-11-19T00:08:56.971Z,-1.75
2022-11-19T00:11:44.412Z,-1.77
2022-11-19T00:14:14.847Z,-1.79
2022-11-19T00:16:46.352Z,-1.81
2022-11-19T00:19:14.663Z,-1.83
2022-11-19T00:21:42.229Z,-1.87
2022-11-19T00:24:10.594Z,-1.89
2022-11-19T00:26:38.109Z,-1.91
2022-11-19T00:29:05.714Z,-1.97
2022-11-19T00:31:33.460Z,-2.03
2022-11-19T00:34:00.956Z,-2.07
2022-11-19T00:36:28.492Z,-2.08
2022-11-19T00:38:56.093Z,-2.08
2022-11-19T00:41:23.644Z,-2.07
2022-11-19T00:43:51.354Z,-2.06
2022-11-19T00:46:21.921Z,-2.03
2022-11-19T00:48:51.689Z,-1.97
2022-11-19T00:51:20.579Z,-1.94
2022-11-19T00:53:48.251Z,-1.89
2022-11-19T00:56:18.823Z,-1.85
2022-11-19T00:58:47.748Z,-1.82
2022-11-19T01:01:17.573Z,-1.79
2022-11-19T01:03:45.965Z,-1.77
2022-11-19T01:06:19.315Z,-1.77
2022-11-19T01:08:48.665Z,-1.78
2022-11-19T01:11:20.247Z,-1.79
2022-11-19T01:13:48.988Z,-1.80
2022-11-19T01:16:21.563Z,-1.84
2022-11-19T01:18:50.362Z,-1.84
2022-11-19T01:21:20.464Z,-1.85
2022-11-19T01:23:48.631Z,-1.87
2022-11-19T01:26:17.636Z,-1.88
2022-11-19T01:28:45.641Z,-1.89
2022-11-19T01:31:19.906Z,-1.90
2022-11-19T01:33:48.085Z,-1.92
2022-11-19T01:36:27.073Z,-1.94
2022-11-19T01:38:55.923Z,-1.96
2022-11-19T01:41:32.378Z,-1.98
2022-11-19T01:44:03.205Z,-2.01
2022-11-19T01:46:33.542Z,-2.04
2022-11-19T01:49:19.011Z,-2.07
2022-11-19T01:51:49.943Z,-2.07
2022-11-19T01:54:30.049Z,-2.06
2022-11-19T01:57:04.417Z,-2.05
2022-11-19T01:59:32.682Z,-2.05
2022-11-19T02:02:00.207Z,-2.05
2022-11-19T02:04:29.526Z,-2.08
2022-11-19T02:06:57.516Z,-2.09
2022-11-19T02:09:28.337Z,-2.10
2022-11-19T02:12:14.651Z,-2.11
2022-11-19T02:15:08.448Z,-2.13
2022-11-19T02:18:00.855Z,-2.14
2022-11-19T02:20:46.389Z,-2.15
2022-11-19T02:23:29.871Z,-2.15
2022-11-19T02:26:29.356Z,-2.16
2022-11-19T02:29:20.225Z,-2.17
2022-11-19T02:32:15.162Z,-2.18
2022-11-19T02:34:48.695Z,-2.20
2022-11-19T02:37:28.437Z,-2.22
2022-11-19T02:40:14.629Z,-2.24
2022-11-19T02:42:56.815Z,-2.25
2022-11-19T02:45:35.646Z,-2.26
2022-11-19T02:48:10.546Z,-2.24
2022-11-19T02:50:46.181Z,-2.19
2022-11-19T02:53:14.281Z,-2.12
2022-11-19T02:56:01.917Z,-2.05
2022-11-19T02:58:47.379Z,-1.99
2022-11-19T03:01:33.068Z,-1.93
2022-11-19T03:04:16.899Z,-1.89
2022-11-19T03:06:44.853Z,-1.86
2022-11-19T03:09:13.504Z,-1.86
2022-11-19T03:11:45.281Z,-1.87
2022-11-19T03:14:48.807Z,-1.88
2022-11-19T03:17:40.532Z,-1.90
2022-11-19T03:20:20.529Z,-1.92
2022-11-19T03:23:02.359Z,-1.93
2022-11-19T03:25:40.018Z,-1.94
2022-11-19T03:28:15.551Z,-1.94
2022-11-19T03:30:46.246Z,-1.94
2022-11-19T03:33:23.831Z,-1.94
2022-11-19T03:35:56.091Z,-1.95
2022-11-19T03:38:30.644Z,-1.96
2022-11-19T03:40:59.738Z,-1.96
2022-11-19T03:43:31.774Z,-1.95
2022-11-19T03:46:02.715Z,-1.95
2022-11-19T03:48:31.145Z,-1.93
2022-11-19T03:51:15.145Z,-1.89
2022-11-19T03:53:42.804Z,-1.86
2022-11-19T03:56:15.093Z,-1.84
2022-11-19T03:58:45.414Z,-1.83
2022-11-19T04:01:13.449Z,-1.82
2022-11-19T04:04:01.188Z,-1.80
2022-11-19T04:06:28.697Z,-1.82
2022-11-19T04:08:56.224Z,-1.86
2022-11-19T04:13:50.275Z,-1.93
2022-11-19T04:16:17.784Z,-1.95
2022-11-19T04:18:45.278Z,-1.95
2022-11-19T04:21:12.820Z,-1.95
2022-11-19T04:23:40.315Z,-1.95
2022-11-19T04:26:07.891Z,-1.90
2022-11-19T04:28:35.465Z,-1.86
2022-11-19T04:31:03.097Z,-1.84
2022-11-19T04:33:30.640Z,-1.84
2022-11-19T04:35:58.226Z,-1.85
2022-11-19T04:38:25.814Z,-1.90
2022-11-19T04:40:53.953Z,-1.94
2022-11-19T04:43:21.490Z,-1.96
2022-11-19T04:45:49.036Z,-1.96
2022-11-19T04:48:16.550Z,-1.95
2022-11-19T04:50:44.172Z,-1.96
2022-11-19T04:53:11.663Z,-1.97
2022-11-19T04:55:39.264Z,-1.96
2022-11-19T04:58:06.766Z,-1.96
2022-11-19T05:00:34.413Z,-1.94
2022-11-19T05:03:01.928Z,-1.90
2022-11-19T05:05:29.457Z,-1.86
2022-11-19T05:07:57.042Z,-1.81
2022-11-19T05:10:24.543Z,-1.78
2022-11-19T05:12:52.099Z,-1.76
2022-11-19T05:15:19.598Z,-1.76
2022-11-19T05:17:48.024Z,-1.77
2022-11-19T05:20:16.007Z,-1.80
2022-11-19T05:22:43.618Z,-1.84
2022-11-19T05:25:11.207Z,-1.87
2022-11-19T05:27:38.830Z,-1.91
2022-11-19T05:30:16.310Z,-1.91
2022-11-19T05:32:43.864Z,-1.95
2022-11-19T05:35:11.407Z,-1.94
2022-11-19T05:37:39.140Z,-1.94
2022-11-19T05:40:07.720Z,-1.95
2022-11-19T05:42:35.228Z,-1.97
2022-11-19T05:45:02.845Z,-1.97
2022-11-19T05:47:30.410Z,-1.97
2022-11-19T05:49:57.908Z,-1.99
2022-11-19T05:52:25.721Z,-2.02
2022-11-19T05:54:53.234Z,-2.03
2022-11-19T05:57:20.810Z,-2.03
2022-11-19T05:59:48.332Z,-2.04
2022-11-19T06:02:15.888Z,-2.03
2022-11-19T06:04:45.592Z,-2.02
2022-11-19T06:07:13.166Z,-1.99
2022-11-19T06:09:40.736Z,-1.97
2022-11-19T06:12:08.300Z,-1.92
2022-11-19T06:14:35.859Z,-1.91
2022-11-19T06:17:03.791Z,-1.92
2022-11-19T06:19:31.372Z,-1.96
2022-11-19T06:21:58.980Z,-1.97
2022-11-19T06:24:26.725Z,-2.01
2022-11-19T06:26:54.300Z,-2.04
2022-11-19T06:29:22.136Z,-2.06
2022-11-19T06:31:50.178Z,-2.09
2022-11-19T06:34:17.707Z,-2.10
2022-11-19T06:36:50.385Z,-2.09
2022-11-19T06:39:19.584Z,-2.07
2022-11-19T06:41:48.696Z,-2.05
2022-11-19T06:44:16.635Z,-2.03
2022-11-19T06:46:44.158Z,-1.99
2022-11-19T06:49:16.799Z,-1.94
2022-11-19T06:51:46.111Z,-1.91
2022-11-19T06:54:13.745Z,-1.89
2022-11-19T06:56:41.273Z,-1.89
2022-11-19T06:59:08.800Z,-1.91
2022-11-19T07:01:37.050Z,-1.90
2022-11-19T07:04:05.085Z,-1.89
2022-11-19T07:06:32.698Z,-1.87
2022-11-19T07:09:00.212Z,-1.86
2022-11-19T07:11:27.838Z,-1.86
2022-11-19T07:13:57.150Z,-1.86
2022-11-19T07:16:26.554Z,-1.85
2022-11-19T07:18:56.370Z,-1.86
2022-11-19T07:21:24.309Z,-1.84
2022-11-19T07:23:52.097Z,-1.80
2022-11-19T07:26:19.670Z,-1.75
2022-11-19T07:28:47.442Z,-1.72
2022-11-19T07:31:15.023Z,-1.72
2022-11-19T07:33:42.618Z,-1.70
2022-11-19T07:36:17.960Z,-1.66
2022-11-19T07:38:46.950Z,-1.62
2022-11-19T07:41:29.486Z,-1.60
2022-11-19T07:43:57.337Z,-1.60
2022-11-19T07:46:24.871Z,-1.60
2022-11-19T07:48:54.907Z,-1.60
2022-11-19T07:51:23.677Z,-1.61
2022-11-19T07:53:51.380Z,-1.63
2022-11-19T07:56:19.948Z,-1.62
2022-11-19T07:58:47.514Z,-1.64
2022-11-19T08:01:18.364Z,-1.66
2022-11-19T08:03:53.223Z,-1.67
2022-11-19T08:06:24.393Z,-1.69
2022-11-19T08:08:52.016Z,-1.69
2022-11-19T08:11:19.674Z,-1.68
2022-11-19T08:13:47.219Z,-1.70
2022-11-19T08:16:37.030Z,-1.72
2022-11-19T08:19:10.100Z,-1.76
2022-11-19T08:21:40.951Z,-1.75
2022-11-19T08:24:11.099Z,-1.71
2022-11-19T08:26:39.253Z,-1.70
2022-11-19T08:29:11.627Z,-1.64
2022-11-19T08:31:44.727Z,-1.56
2022-11-19T08:34:12.299Z,-1.51
2022-11-19T08:36:39.950Z,-1.44
2022-11-19T08:39:07.826Z,-1.41
2022-11-19T08:41:50.630Z,-1.40
2022-11-19T08:44:18.592Z,-1.39
2022-11-19T08:46:46.742Z,-1.39
2022-11-19T08:49:14.414Z,-1.38
2022-11-19T08:51:42.088Z,-1.31
2022-11-19T08:54:09.745Z,-1.19
2022-11-19T08:56:37.332Z,-1.06
2022-11-19T08:59:05.281Z,-0.97
2022-11-19T09:01:32.880Z,-0.88
2022-11-19T09:04:00.447Z,-0.84
2022-11-19T09:06:28.027Z,-0.80
2022-11-19T09:08:55.639Z,-0.79
2022-11-19T09:11:23.205Z,-0.83
2022-11-19T09:13:51.108Z,-0.88
2022-11-19T09:16:18.706Z,-0.93
2022-11-19T09:18:46.294Z,-0.95
2022-11-19T09:21:14.262Z,-0.96
2022-11-19T09:23:42.569Z,-0.97
2022-11-19T09:26:15.256Z,-0.96
2022-11-19T09:28:43.826Z,-0.93
2022-11-19T09:31:14.918Z,-0.89
2022-11-19T09:33:48.000Z,-0.81
2022-11-19T09:36:17.666Z,-0.68
2022-11-19T09:38:46.051Z,-0.57
2022-11-19T09:41:37.725Z,-0.46
2022-11-19T09:44:24.362Z,-0.33
2022-11-19T09:47:23.917Z,-0.19
2022-11-19T09:50:10.091Z,-0.06
2022-11-19T09:52:44.279Z,0.06
2022-11-19T09:55:26.715Z,0.10
2022-11-19T09:57:57.543Z,0.11
2022-11-19T10:00:28.855Z,0.12
2022-11-19T10:02:58.757Z,0.11
2022-11-19T10:05:51.121Z,0.05
2022-11-19T10:08:27.779Z,-0.07
2022-11-19T10:11:14.252Z,-0.10
2022-11-19T10:14:00.795Z,-0.09
2022-11-19T10:16:44.313Z,0.09
2022-11-19T10:19:43.932Z,0.41
2022-11-19T10:22:24.804Z,0.84
2022-11-19T10:25:02.517Z,1.18
2022-11-19T10:28:05.311Z,1.44
2022-11-19T10:30:33.456Z,1.46
2022-11-19T10:33:07.476Z,1.33
2022-11-19T10:35:43.693Z,1.20
2022-11-19T10:38:23.165Z,1.11
2022-11-19T10:40:59.214Z,1.00
2022-11-19T10:43:32.871Z,0.83
2022-11-19T10:46:04.314Z,0.73
2022-11-19T10:49:03.790Z,0.69
2022-11-19T10:51:39.949Z,0.63
2022-11-19T10:54:25.621Z,0.58
2022-11-19T10:56:55.632Z,0.55
2022-11-19T10:59:27.060Z,0.56
2022-11-19T11:02:01.403Z,0.51
2022-11-19T11:04:30.095Z,0.38
2022-11-19T11:06:58.916Z,0.30
2022-11-19T11:09:43.566Z,0.17
2022-11-19T11:12:32.917Z,0.06
2022-11-19T11:15:28.088Z,-0.01
2022-11-19T11:18:15.386Z,-0.08
2022-11-19T11:20:51.262Z,-0.12
2022-11-19T11:23:24.262Z,-0.19
2022-11-19T11:26:00.261Z,-0.23
2022-11-19T11:28:27.795Z,-0.25
2022-11-19T11:31:01.492Z,-0.32
2022-11-19T11:33:31.596Z,-0.36
2022-11-19T11:36:14.499Z,-0.44
2022-11-19T11:38:51.113Z,-0.49
2022-11-19T11:44:30.569Z,-0.39
2022-11-19T11:47:02.170Z,-0.26
2022-11-19T11:49:37.132Z,-0.19
2022-11-19T11:52:22.851Z,-0.12
2022-11-19T11:55:13.909Z,0.01
2022-11-19T11:57:58.774Z,0.18
2022-11-19T12:00:48.577Z,0.30
2022-11-19T12:03:18.790Z,0.36
2022-11-19T12:06:02.311Z,0.37
2022-11-19T12:08:51.796Z,0.31
2022-11-19T12:11:54.261Z,0.27
2022-11-19T12:14:53.775Z,0.22
2022-11-19T12:17:45.276Z,0.28
2022-11-19T12:20:20.721Z,0.28
2022-11-19T12:22:58.110Z,0.24
2022-11-19T12:25:40.093Z,0.25
2022-11-19T12:28:36.772Z,0.22
2022-11-19T12:31:36.286Z,0.21
2022-11-19T12:34:22.745Z,0.19
2022-11-19T12:37:13.457Z,0.18
2022-11-19T12:39:56.979Z,0.23
2022-11-19T12:42:56.399Z,0.25
2022-11-19T12:45:55.911Z,0.24
2022-11-19T12:48:23.414Z,0.20
2022-11-19T12:51:13.995Z,0.15
2022-11-19T12:53:57.470Z,0.09
2022-11-19T12:56:40.911Z,0.06
2022-11-19T12:59:41.243Z,-0.02
2022-11-19T13:02:23.858Z,-0.12
2022-11-19T13:04:57.666Z,-0.17
2022-11-19T13:07:37.733Z,-0.22
2022-11-19T13:10:16.702Z,-0.28
2022-11-19T13:12:50.425Z,-0.33
2022-11-19T13:15:26.166Z,-0.37
2022-11-19T13:17:56.558Z,-0.41
2022-11-19T13:20:40.036Z,-0.42
2022-11-19T13:23:16.289Z,-0.46
2022-11-19T13:25:51.923Z,-0.46
2022-11-19T13:28:55.821Z,-0.47
2022-11-19T13:31:23.606Z,-0.49
2022-11-19T13:33:59.982Z,-0.52
2022-11-19T13:36:46.380Z,-0.52
2022-11-19T13:39:23.019Z,-0.57
2022-11-19T13:42:09.965Z,-0.63
2022-11-19T13:44:38.303Z,-0.68
2022-11-19T13:47:09.970Z,-0.68
2022-11-19T13:49:43.527Z,-0.68
2022-11-19T13:52:30.031Z,-0.67
2022-11-19T13:54:59.866Z,-0.67
2022-11-19T13:57:35.543Z,-0.67
2022-11-19T14:00:18.961Z,-0.67
2022-11-19T14:03:08.654Z,-0.65
2022-11-19T14:06:00.464Z,-0.65
2022-11-19T14:09:04.185Z,-0.65
2022-11-19T14:11:34.504Z,-0.67
2022-11-19T14:14:04.668Z,-0.68
2022-11-19T14:17:08.854Z,-0.68
2022-11-19T14:20:25.136Z,-0.71
2022-11-19T14:23:11.548Z,-0.74
2022-11-19T14:25:54.961Z,-0.75
2022-11-19T14:28:54.497Z,-0.78
2022-11-19T14:31:22.044Z,-0.80
2022-11-19T14:33:49.599Z,-0.83
2022-11-19T14:36:25.245Z,-0.86
2022-11-19T14:39:02.768Z,-0.87
2022-11-19T14:41:35.028Z,-0.88
2022-11-19T14:44:10.949Z,-0.88
2022-11-19T14:46:47.985Z,-0.90
2022-11-19T14:49:27.503Z,-0.95
2022-11-19T14:51:57.529Z,-1.06
2022-11-19T14:54:44.857Z,-1.19
2022-11-19T14:57:25.676Z,-1.35
2022-11-19T15:00:00.724Z,-1.44
2022-11-19T15:02:39.842Z,-1.48
2022-11-19T15:05:42.774Z,-1.54
2022-11-19T15:08:16.590Z,-1.62
2022-11-19T15:11:04.681Z,-1.67
2022-11-19T15:13:35.145Z,-1.72
2022-11-19T15:16:02.601Z,-1.73
2022-11-19T15:18:46.057Z,-1.75
2022-11-19T15:21:46.521Z,-1.79
2022-11-19T15:24:23.174Z,-1.84
2022-11-19T15:26:59.156Z,-1.90
2022-11-19T15:29:42.599Z,-1.92
2022-11-19T15:32:26.103Z,-1.91
2022-11-19T15:35:26.567Z,-1.90
2022-11-19T15:38:20.018Z,-1.84
2022-11-19T15:40:51.194Z,-1.77
2022-11-19T15:43:21.956Z,-1.71
2022-11-19T15:45:55.315Z,-1.65
2022-11-19T15:48:30.318Z,-1.61
2022-11-19T15:50:59.073Z,-1.60
2022-11-19T15:53:28.176Z,-1.62
2022-11-19T15:56:03.767Z,-1.62
2022-11-19T15:58:37.485Z,-1.63
2022-11-19T16:01:08.129Z,-1.66
2022-11-19T16:03:40.125Z,-1.67
2022-11-19T16:06:24.504Z,-1.64
2022-11-19T16:09:00.636Z,-1.61
2022-11-19T16:11:50.296Z,-1.58
2022-11-19T16:14:43.356Z,-1.56
2022-11-19T16:17:35.811Z,-1.55
2022-11-19T16:20:30.214Z,-1.54
2022-11-19T16:23:04.486Z,-1.56
2022-11-19T16:25:35.653Z,-1.57
2022-11-19T16:28:13.121Z,-1.54
2022-11-19T16:31:01.216Z,-1.52
2022-11-19T16:33:30.874Z,-1.48
2022-11-19T16:36:18.507Z,-1.47
2022-11-19T16:38:49.551Z,-1.46
2022-11-19T16:41:39.907Z,-1.46
2022-11-19T16:44:27.799Z,-1.48
2022-11-19T16:46:55.890Z,-1.50
2022-11-19T16:49:55.422Z,-1.52
2022-11-19T16:52:40.445Z,-1.57
2022-11-19T16:55:24.262Z,-1.60
2022-11-19T16:58:10.436Z,-1.61
2022-11-19T17:00:38.113Z,-1.61
2022-11-19T17:03:21.630Z,-1.62
2022-11-19T17:05:52.810Z,-1.65
2022-11-19T17:08:27.894Z,-1.65
2022-11-19T17:11:34.288Z,-1.66
2022-11-19T17:14:34.208Z,-1.67
2022-11-19T17:17:03.526Z,-1.67
2022-11-19T17:19:34.029Z,-1.63
2022-11-19T17:22:06.176Z,-1.60
2022-11-19T17:24:50.542Z,-1.59
2022-11-19T17:27:26.080Z,-1.60
2022-11-19T17:30:01.745Z,-1.63
2022-11-19T17:32:39.926Z,-1.63
2022-11-19T17:35:09.818Z,-1.65
2022-11-19T17:37:37.358Z,-1.66
2022-11-19T17:40:05.366Z,-1.63
2022-11-19T17:42:48.848Z,-1.63
2022-11-19T17:45:16.448Z,-1.62
2022-11-19T17:47:45.859Z,-1.63
2022-11-19T17:50:14.048Z,-1.63
2022-11-19T17:52:42.572Z,-1.61
2022-11-19T17:55:18.527Z,-1.59
2022-11-19T17:57:46.035Z,-1.62
2022-11-19T18:00:14.729Z,-1.66
2022-11-19T18:02:42.238Z,-1.67
2022-11-19T18:05:15.123Z,-1.67
2022-11-19T18:07:42.734Z,-1.67
2022-11-19T18:10:10.347Z,-1.64
2022-11-19T18:12:37.935Z,-1.63
2022-11-19T18:15:06.306Z,-1.62
2022-11-19T18:17:33.817Z,-1.60
2022-11-19T18:20:01.461Z,-1.60
2022-11-19T18:22:28.991Z,-1.63
2022-11-19T18:24:57.255Z,-1.65
2022-11-19T18:27:24.810Z,-1.67
2022-11-19T18:29:52.621Z,-1.69
2022-11-19T18:32:20.158Z,-1.67
2022-11-19T18:34:47.676Z,-1.64
2022-11-19T18:37:15.346Z,-1.63
2022-11-19T18:39:42.895Z,-1.61
2022-11-19T18:42:12.721Z,-1.59
2022-11-19T18:44:43.340Z,-1.60
2022-11-19T18:47:13.737Z,-1.62
2022-11-19T18:49:42.080Z,-1.64
2022-11-19T18:52:14.482Z,-1.66
2022-11-19T18:54:42.182Z,-1.68
2022-11-19T18:57:11.843Z,-1.70
2022-11-19T18:59:40.492Z,-1.68
2022-11-19T19:02:10.123Z,-1.67
2022-11-19T19:04:37.773Z,-1.65
2022-11-19T19:07:05.622Z,-1.65
2022-11-19T19:09:33.208Z,-1.66
2022-11-19T19:12:16.703Z,-1.66
2022-11-19T19:14:47.221Z,-1.68
2022-11-19T19:17:15.814Z,-1.67
2022-11-19T19:19:43.590Z,-1.69
2022-11-19T19:22:11.260Z,-1.71
2022-11-19T19:24:38.840Z,-1.72
2022-11-19T19:27:06.511Z,-1.74
2022-11-19T19:29:34.068Z,-1.72
2022-11-19T19:32:02.141Z,-1.70
2022-11-19T19:34:30.259Z,-1.66
2022-11-19T19:36:57.783Z,-1.63
2022-11-19T19:39:25.765Z,-1.60
2022-11-19T19:41:53.511Z,-1.58
2022-11-19T19:44:21.124Z,-1.57
2022-11-19T19:46:48.816Z,-1.55
2022-11-19T19:49:16.490Z,-1.54
2022-11-19T19:51:44.377Z,-1.54
2022-11-19T19:54:11.966Z,-1.56
2022-11-19T19:56:40.521Z,-1.60
2022-11-19T19:59:11.336Z,-1.61
2022-11-19T20:01:39.157Z,-1.64
2022-11-19T20:04:10.023Z,-1.66
2022-11-19T20:06:41.597Z,-1.65
2022-11-19T20:09:09.632Z,-1.62
2022-11-19T20:11:38.110Z,-1.59
2022-11-19T20:14:06.625Z,-1.58
2022-11-19T20:16:35.184Z,-1.57
2022-11-19T20:19:03.285Z,-1.57
2022-11-19T20:21:33.963Z,-1.57
2022-11-19T20:24:07.150Z,-1.57
2022-11-19T20:26:38.100Z,-1.60
2022-11-19T20:29:06.878Z,-1.63
2022-11-19T20:31:35.459Z,-1.67
2022-11-19T20:34:05.210Z,-1.71
2022-11-19T20:36:35.271Z,-1.74
2022-11-19T20:39:03.250Z,-1.73
2022-11-19T20:41:46.932Z,-1.70
2022-11-19T20:44:23.222Z,-1.66
2022-11-19T20:47:08.868Z,-1.62
2022-11-19T20:49:40.845Z,-1.60
2022-11-19T20:52:08.523Z,-1.60
2022-11-19T20:54:36.179Z,-1.60
2022-11-19T20:57:03.879Z,-1.61
2022-11-19T20:59:31.685Z,-1.61
2022-11-19T21:01:59.344Z,-1.63
2022-11-19T21:04:36.320Z,-1.66
2022-11-19T21:07:04.948Z,-1.70
2022-11-19T21:09:33.496Z,-1.72
2022-11-19T21:12:01.049Z,-1.72
2022-11-19T21:14:28.576Z,-1.70
2022-11-19T21:16:56.229Z,-1.69
2022-11-19T21:19:24.150Z,-1.70
2022-11-19T21:21:52.075Z,-1.70
2022-11-19T21:24:19.647Z,-1.69
2022-11-19T21:26:47.395Z,-1.70
2022-11-19T21:29:15.246Z,-1.70
2022-11-19T21:31:45.305Z,-1.71
2022-11-19T21:34:18.172Z,-1.73
2022-11-19T21:36:46.905Z,-1.73
2022-11-19T21:39:16.566Z,-1.71
2022-11-19T21:41:44.751Z,-1.69
2022-11-19T21:44:15.456Z,-1.66
2022-11-19T21:46:47.245Z,-1.64
2022-11-19T21:49:14.848Z,-1.60
2022-11-19T21:51:43.155Z,-1.58
2022-11-19T21:54:10.712Z,-1.56
2022-11-19T21:56:39.140Z,-1.55
2022-11-19T21:59:07.089Z,-1.54
2022-11-19T22:01:34.928Z,-1.51
2022-11-19T22:04:02.858Z,-1.53
2022-11-19T22:06:31.888Z,-1.54
2022-11-19T22:08:59.449Z,-1.54
2022-11-19T22:11:30.006Z,-1.57
2022-11-19T22:14:02.372Z,-1.57
2022-11-19T22:16:32.785Z,-1.58
2022-11-19T22:19:00.573Z,-1.57
2022-11-19T22:21:29.347Z,-1.55
2022-11-19T22:23:57.512Z,-1.52
2022-11-19T22:26:25.575Z,-1.49
2022-11-19T22:28:53.727Z,-1.45
2022-11-19T22:31:21.439Z,-1.43
2022-11-19T22:33:51.718Z,-1.43
2022-11-19T22:36:20.871Z,-1.44
2022-11-19T22:38:49.228Z,-1.44
2022-11-19T22:41:19.668Z,-1.45
2022-11-19T22:43:47.899Z,-1.46
2022-11-19T22:46:16.080Z,-1.47
2022-11-19T22:48:43.819Z,-1.49
2022-11-19T22:51:15.819Z,-1.51
2022-11-19T22:53:43.939Z,-1.53
2022-11-19T22:56:14.329Z,-1.52
2022-11-19T22:58:42.837Z,-1.49
2022-11-19T23:01:27.987Z,-1.46
2022-11-19T23:03:57.619Z,-1.43
2022-11-19T23:06:25.901Z,-1.40
2022-11-19T23:08:54.675Z,-1.38
2022-11-19T23:11:39.292Z,-1.38
2022-11-19T23:14:14.180Z,-1.38
2022-11-19T23:16:42.999Z,-1.38
2022-11-19T23:19:12.582Z,-1.37
2022-11-19T23:21:41.300Z,-1.37
2022-11-19T23:24:10.216Z,-1.37
2022-11-19T23:26:38.316Z,-1.38
2022-11-19T23:29:06.715Z,-1.39
2022-11-19T23:31:37.402Z,-1.39
2022-11-19T23:34:05.754Z,-1.41
2022-11-19T23:36:37.101Z,-1.43
2022-11-19T23:39:09.763Z,-1.47
2022-11-19T23:41:37.343Z,-1.48
2022-11-19T23:44:04.994Z,-1.47
2022-11-19T23:46:34.711Z,-1.45
2022-11-19T23:49:05.215Z,-1.45
2022-11-19T23:51:35.550Z,-1.42
2022-11-19T23:54:04.480Z,-1.41
2022-11-19T23:56:34.163Z,-1.39
2022-11-19T23:59:03.790Z,-1.39
